createdAt,value
2023-01-25T00:00:23.157Z,3.00
2023-01-25T00:02:49.724Z,2.95
2023-01-25T00:05:16.243Z,2.89
2023-01-25T00:07:42.744Z,2.90
2023-01-25T00:10:10.050Z,2.97
2023-01-25T00:12:36.644Z,2.96
2023-01-25T00:17:43.912Z,3.06
2023-01-25T00:20:10.885Z,3.03
2023-01-25T00:22:38.000Z,3.09
2023-01-25T00:25:05.090Z,3.07
2023-01-25T00:27:34.579Z,3.11
2023-01-25T00:30:03.400Z,3.10
2023-01-25T00:32:47.324Z,2.93
2023-01-25T00:35:15.092Z,2.76
2023-01-25T00:37:49.947Z,2.72
2023-01-25T00:40:19.575Z,2.86
2023-01-25T00:42:46.591Z,3.04
2023-01-25T00:45:13.425Z,3.10
2023-01-25T00:47:40.268Z,3.09
2023-01-25T00:50:08.706Z,3.05
2023-01-25T00:52:35.329Z,2.81
2023-01-25T00:55:02.024Z,2.65
2023-01-25T00:57:28.627Z,2.76
2023-01-25T00:59:55.307Z,2.73
2023-01-25T01:02:21.976Z,2.78
2023-01-25T01:04:48.577Z,2.90
2023-01-25T01:07:15.500Z,2.81
2023-01-25T01:09:42.045Z,2.87
2023-01-25T01:12:09.241Z,3.01
2023-01-25T01:14:35.945Z,2.98
2023-01-25T01:17:02.488Z,3.04
2023-01-25T01:19:29.013Z,3.08
2023-01-25T01:21:55.588Z,3.17
2023-01-25T01:24:22.103Z,3.18
2023-01-25T01:26:48.620Z,3.11
2023-01-25T01:29:15.107Z,2.78
2023-01-25T01:31:42.249Z,2.52
2023-01-25T01:34:19.425Z,2.40
2023-01-25T01:37:04.687Z,2.49
2023-01-25T01:39:31.205Z,2.62
2023-01-25T01:41:57.710Z,2.76
2023-01-25T01:44:46.081Z,2.90
2023-01-25T01:47:18.801Z,2.86
2023-01-25T01:49:52.310Z,2.88
2023-01-25T01:52:22.957Z,2.83
2023-01-25T01:55:03.114Z,2.85
2023-01-25T01:57:46.559Z,2.89
2023-01-25T02:00:18.400Z,3.03
2023-01-25T02:02:46.276Z,3.20
2023-01-25T02:05:20.663Z,3.29
2023-01-25T02:07:50.870Z,3.32
2023-01-25T02:10:18.129Z,3.41
2023-01-25T02:12:45.799Z,3.43
2023-01-25T02:15:12.513Z,3.37
2023-01-25T02:17:40.330Z,3.21
2023-01-25T02:20:25.379Z,3.32
2023-01-25T02:23:14.229Z,3.42
2023-01-25T02:25:41.333Z,3.48
2023-01-25T02:28:29.290Z,3.54
2023-01-25T02:30:55.941Z,3.33
2023-01-25T02:33:26.854Z,3.09
2023-01-25T02:36:12.513Z,2.90
2023-01-25T02:38:43.107Z,2.59
2023-01-25T02:41:24.731Z,2.51
2023-01-25T02:43:51.974Z,2.53
2023-01-25T02:46:25.945Z,2.80
2023-01-25T02:48:53.116Z,2.81
2023-01-25T02:51:20.660Z,2.96
2023-01-25T02:53:47.405Z,2.84
2023-01-25T02:56:13.985Z,2.61
2023-01-25T02:58:40.764Z,2.54
2023-01-25T03:01:11.256Z,2.63
2023-01-25T03:03:37.910Z,2.74
2023-01-25T03:06:04.868Z,2.75
2023-01-25T03:08:31.437Z,2.69
2023-01-25T03:10:59.853Z,2.59
2023-01-25T03:13:27.134Z,2.59
2023-01-25T03:15:59.790Z,2.55
2023-01-25T03:18:26.694Z,2.43
2023-01-25T03:20:53.177Z,2.33
2023-01-25T03:23:22.408Z,2.36
2023-01-25T03:25:48.900Z,2.42
2023-01-25T03:28:15.431Z,2.34
2023-01-25T03:30:42.163Z,2.34
2023-01-25T03:33:09.432Z,2.48
2023-01-25T03:35:39.379Z,2.61
2023-01-25T03:38:05.877Z,2.66
2023-01-25T03:40:32.416Z,2.75
2023-01-25T03:42:58.885Z,2.84
2023-01-25T03:45:25.389Z,3.01
2023-01-25T03:48:13.901Z,3.16
2023-01-25T03:50:40.422Z,3.24
2023-01-25T03:53:13.344Z,3.22
2023-01-25T03:55:39.880Z,3.01
2023-01-25T03:58:06.392Z,3.07
2023-01-25T04:00:32.930Z,3.24
2023-01-25T04:02:59.387Z,3.41
2023-01-25T04:05:25.877Z,3.48
2023-01-25T04:07:52.404Z,3.43
2023-01-25T04:10:19.035Z,3.28
2023-01-25T04:12:45.486Z,3.09
2023-01-25T04:15:12.009Z,3.01
2023-01-25T04:17:39.130Z,3.00
2023-01-25T04:20:06.352Z,3.03
2023-01-25T04:22:32.889Z,3.09
2023-01-25T04:24:59.412Z,3.10
2023-01-25T04:27:25.965Z,3.15
2023-01-25T04:29:52.465Z,3.25
2023-01-25T04:32:19.240Z,3.28
2023-01-25T04:34:49.017Z,3.25
2023-01-25T04:37:15.457Z,3.11
2023-01-25T04:39:41.888Z,2.98
2023-01-25T04:42:09.040Z,2.98
2023-01-25T04:44:36.206Z,2.70
2023-01-25T04:47:03.697Z,2.61
2023-01-25T04:49:30.416Z,2.56
2023-01-25T04:51:56.871Z,2.48
2023-01-25T04:54:23.438Z,2.47
2023-01-25T04:56:50.028Z,2.45
2023-01-25T04:59:16.546Z,2.42
2023-01-25T05:01:43.065Z,2.34
2023-01-25T05:04:09.705Z,2.40
2023-01-25T05:06:36.158Z,2.32
2023-01-25T05:09:03.523Z,2.32
2023-01-25T05:11:30.059Z,2.34
2023-01-25T05:13:56.545Z,2.31
2023-01-25T05:16:23.164Z,2.38
2023-01-25T05:18:50.032Z,2.35
2023-01-25T05:21:35.181Z,2.40
2023-01-25T05:24:02.588Z,2.46
2023-01-25T05:26:48.004Z,2.35
2023-01-25T05:29:14.655Z,2.39
2023-01-25T05:31:41.215Z,2.38
2023-01-25T05:34:09.229Z,2.44
2023-01-25T05:36:35.763Z,2.36
2023-01-25T05:39:02.225Z,2.32
2023-01-25T05:41:30.780Z,2.33
2023-01-25T05:43:57.251Z,2.41
2023-01-25T05:46:23.809Z,2.59
2023-01-25T05:48:50.577Z,2.50
2023-01-25T05:51:17.261Z,2.46
2023-01-25T05:53:43.762Z,2.58
2023-01-25T05:56:10.831Z,2.57
2023-01-25T05:58:42.851Z,2.49
2023-01-25T06:01:09.446Z,2.45
2023-01-25T06:03:37.907Z,2.48
2023-01-25T06:06:04.768Z,2.54
2023-01-25T06:08:31.629Z,2.52
2023-01-25T06:10:58.322Z,2.69
2023-01-25T06:13:25.998Z,2.67
2023-01-25T06:15:56.884Z,2.79
2023-01-25T06:18:28.066Z,2.78
2023-01-25T06:21:01.660Z,2.61
2023-01-25T06:23:28.782Z,2.37
2023-01-25T06:26:02.854Z,2.14
2023-01-25T06:28:33.751Z,2.18
2023-01-25T06:31:09.155Z,2.27
2023-01-25T06:33:36.027Z,2.26
2023-01-25T06:36:05.607Z,2.24
2023-01-25T06:38:33.008Z,2.28
2023-01-25T06:41:03.365Z,2.37
2023-01-25T06:43:30.671Z,2.52
2023-01-25T06:46:09.147Z,2.57
2023-01-25T06:48:35.975Z,2.73
2023-01-25T06:51:22.554Z,2.86
2023-01-25T06:53:49.022Z,2.88
2023-01-25T06:56:18.391Z,2.90
2023-01-25T06:58:45.709Z,2.86
2023-01-25T07:01:15.449Z,2.72
2023-01-25T07:03:43.161Z,2.66
2023-01-25T07:06:11.438Z,2.55
2023-01-25T07:08:38.821Z,2.53
2023-01-25T07:11:09.445Z,2.53
2023-01-25T07:13:36.528Z,2.46
2023-01-25T07:16:05.882Z,2.41
2023-01-25T07:18:33.177Z,2.44
2023-01-25T07:21:05.328Z,2.53
2023-01-25T07:23:32.869Z,2.56
2023-01-25T07:26:02.425Z,2.53
2023-01-25T07:28:28.974Z,2.56
2023-01-25T07:30:55.488Z,2.80
2023-01-25T07:33:21.959Z,2.94
2023-01-25T07:35:50.994Z,3.01
2023-01-25T07:38:17.782Z,2.83
2023-01-25T07:40:44.340Z,2.73
2023-01-25T07:43:10.924Z,2.66
2023-01-25T07:45:38.147Z,2.51
2023-01-25T07:48:12.121Z,2.40
2023-01-25T07:50:39.769Z,2.39
2023-01-25T07:53:06.322Z,2.42
2023-01-25T07:55:33.318Z,2.42
2023-01-25T07:58:00.571Z,2.37
2023-01-25T08:00:27.364Z,2.35
2023-01-25T08:02:53.962Z,2.16
2023-01-25T08:05:20.645Z,2.15
2023-01-25T08:07:48.212Z,2.33
2023-01-25T08:10:15.456Z,2.27
2023-01-25T08:12:46.254Z,2.25
2023-01-25T08:15:14.233Z,2.34
2023-01-25T08:17:40.836Z,2.33
2023-01-25T08:20:09.178Z,2.26
2023-01-25T08:22:35.826Z,2.40
2023-01-25T08:25:03.471Z,2.63
2023-01-25T08:27:29.992Z,3.02
2023-01-25T08:29:56.474Z,3.28
2023-01-25T08:32:26.796Z,3.42
2023-01-25T08:34:53.284Z,3.57
2023-01-25T08:37:20.080Z,3.62
2023-01-25T08:39:46.633Z,3.68
2023-01-25T08:42:13.158Z,3.74
2023-01-25T08:44:39.633Z,3.71
2023-01-25T08:47:06.212Z,3.68
2023-01-25T08:49:34.534Z,3.52
2023-01-25T08:52:01.434Z,3.62
2023-01-25T08:54:28.035Z,3.85
2023-01-25T08:56:54.703Z,3.62
2023-01-25T08:59:21.156Z,3.52
2023-01-25T09:01:47.737Z,3.38
2023-01-25T09:04:14.232Z,3.32
2023-01-25T09:06:40.692Z,3.29
2023-01-25T09:09:08.820Z,3.48
2023-01-25T09:11:38.017Z,3.71
2023-01-25T09:14:05.425Z,3.90
2023-01-25T09:16:32.186Z,3.93
2023-01-25T09:19:02.090Z,4.16
2023-01-25T09:21:29.542Z,4.20
2023-01-25T09:24:11.464Z,4.00
2023-01-25T09:26:40.866Z,4.09
2023-01-25T09:29:10.839Z,4.34
2023-01-25T09:31:43.922Z,4.46
2023-01-25T09:34:12.309Z,4.54
2023-01-25T09:36:39.710Z,4.29
2023-01-25T09:39:06.320Z,4.13
2023-01-25T09:42:00.692Z,3.96
2023-01-25T09:45:09.032Z,4.29
2023-01-25T09:47:42.083Z,4.53
2023-01-25T09:50:25.464Z,4.69
2023-01-25T09:53:11.819Z,4.91
2023-01-25T09:55:39.468Z,5.28
2023-01-25T09:58:14.463Z,5.37
2023-01-25T10:00:48.740Z,5.29
2023-01-25T10:03:39.268Z,5.30
2023-01-25T10:06:06.751Z,5.45
2023-01-25T10:08:40.331Z,5.35
2023-01-25T10:11:18.831Z,5.27
2023-01-25T10:13:45.375Z,5.17
2023-01-25T10:16:25.840Z,5.32
2023-01-25T10:19:19.255Z,5.52
2023-01-25T10:21:53.112Z,5.58
2023-01-25T10:24:54.825Z,5.40
2023-01-25T10:27:27.321Z,5.27
2023-01-25T10:29:57.926Z,5.54
2023-01-25T10:32:32.551Z,5.80
2023-01-25T10:35:22.721Z,5.91
2023-01-25T10:37:59.893Z,5.87
2023-01-25T10:40:27.477Z,6.26
2023-01-25T10:43:03.435Z,6.57
2023-01-25T10:45:30.244Z,6.50
2023-01-25T10:48:05.199Z,6.78
2023-01-25T10:50:47.184Z,6.69
2023-01-25T10:53:22.799Z,6.96
2023-01-25T10:56:00.723Z,7.49
2023-01-25T10:58:31.250Z,7.49
2023-01-25T11:00:58.047Z,7.74
2023-01-25T11:03:34.731Z,7.61
2023-01-25T11:06:02.338Z,7.42
2023-01-25T11:08:31.533Z,7.57
2023-01-25T11:10:59.316Z,7.68
2023-01-25T11:13:28.820Z,7.54
2023-01-25T11:16:16.365Z,7.28
2023-01-25T11:19:04.114Z,6.98
2023-01-25T11:21:33.360Z,6.51
2023-01-25T11:24:25.974Z,6.22
2023-01-25T11:27:12.402Z,5.84
2023-01-25T11:29:39.611Z,5.71
2023-01-25T11:32:22.680Z,5.55
2023-01-25T11:34:50.967Z,5.40
2023-01-25T11:37:32.541Z,5.47
2023-01-25T11:40:22.453Z,5.40
2023-01-25T11:43:21.499Z,5.27
2023-01-25T11:45:55.397Z,5.27
2023-01-25T11:48:39.541Z,5.25
2023-01-25T11:51:14.753Z,5.35
2023-01-25T11:53:53.436Z,5.17
2023-01-25T11:56:25.727Z,4.94
2023-01-25T11:59:04.331Z,4.92
2023-01-25T12:01:49.614Z,5.07
2023-01-25T12:04:35.268Z,5.05
2023-01-25T12:07:19.758Z,5.14
2023-01-25T12:09:48.991Z,5.15
2023-01-25T12:12:24.409Z,5.20
2023-01-25T12:15:15.295Z,5.14
2023-01-25T12:18:05.368Z,5.16
2023-01-25T12:21:06.369Z,5.05
2023-01-25T12:23:57.592Z,5.00
2023-01-25T12:26:44.342Z,4.96
2023-01-25T12:29:25.000Z,5.07
2023-01-25T12:31:58.621Z,5.17
2023-01-25T12:34:36.227Z,4.99
2023-01-25T12:37:14.863Z,5.09
2023-01-25T12:39:45.127Z,5.03
2023-01-25T12:42:26.365Z,5.03
2023-01-25T12:44:59.658Z,5.14
2023-01-25T12:47:43.726Z,5.22
2023-01-25T12:50:19.389Z,5.24
2023-01-25T12:53:13.563Z,5.24
2023-01-25T12:55:40.775Z,5.35
2023-01-25T12:58:26.443Z,5.28
2023-01-25T13:01:31.887Z,5.17
2023-01-25T13:04:10.482Z,5.19
2023-01-25T13:06:39.686Z,5.29
2023-01-25T13:09:45.736Z,5.26
2023-01-25T13:12:12.829Z,5.30
2023-01-25T13:14:40.802Z,5.29
2023-01-25T13:17:11.376Z,5.23
2023-01-25T13:19:38.139Z,5.24
2023-01-25T13:22:05.318Z,5.19
2023-01-25T13:24:34.876Z,5.25
2023-01-25T13:27:04.315Z,5.41
2023-01-25T13:29:47.117Z,5.23
2023-01-25T13:32:25.872Z,5.23
2023-01-25T13:34:53.490Z,5.30
2023-01-25T13:37:25.935Z,5.30
2023-01-25T13:39:58.211Z,5.40
2023-01-25T13:42:34.381Z,5.12
2023-01-25T13:45:18.638Z,4.96
2023-01-25T13:48:19.640Z,5.09
2023-01-25T13:50:50.328Z,5.18
2023-01-25T13:53:16.768Z,5.27
2023-01-25T13:55:46.644Z,5.13
2023-01-25T13:58:34.146Z,5.12
2023-01-25T14:01:07.140Z,5.03
2023-01-25T14:03:41.925Z,5.12
2023-01-25T14:06:17.435Z,5.19
2023-01-25T14:08:46.410Z,5.27
2023-01-25T14:11:25.117Z,5.27
2023-01-25T14:14:04.488Z,5.20
2023-01-25T14:16:32.085Z,5.17
2023-01-25T14:19:25.549Z,5.08
2023-01-25T14:22:27.362Z,4.81
2023-01-25T14:25:15.488Z,4.88
2023-01-25T14:28:06.264Z,4.84
2023-01-25T14:30:34.865Z,5.01
2023-01-25T14:33:04.287Z,4.99
2023-01-25T14:35:42.992Z,4.92
2023-01-25T14:38:40.758Z,4.98
2023-01-25T14:41:22.487Z,4.99
2023-01-25T14:43:51.941Z,5.00
2023-01-25T14:46:29.799Z,5.09
2023-01-25T14:49:25.446Z,5.17
2023-01-25T14:52:13.106Z,5.04
2023-01-25T14:54:50.161Z,4.69
2023-01-25T14:57:41.005Z,4.71
2023-01-25T15:00:21.268Z,4.86
2023-01-25T15:02:55.130Z,4.97
2023-01-25T15:05:27.384Z,5.13
2023-01-25T15:07:58.705Z,5.14
2023-01-25T15:10:33.274Z,5.15
2023-01-25T15:13:11.649Z,4.97
2023-01-25T15:15:52.504Z,4.94
2023-01-25T15:18:51.462Z,4.84
2023-01-25T15:21:26.785Z,4.59
2023-01-25T15:23:56.118Z,4.52
2023-01-25T15:26:22.653Z,4.70
2023-01-25T15:28:54.763Z,4.73
2023-01-25T15:31:23.036Z,4.61
2023-01-25T15:33:49.826Z,4.56
2023-01-25T15:36:17.424Z,4.64
2023-01-25T15:38:44.829Z,4.69
2023-01-25T15:41:12.350Z,4.75
2023-01-25T15:43:40.934Z,4.74
2023-01-25T15:46:15.155Z,4.62
2023-01-25T15:48:43.012Z,4.61
2023-01-25T15:51:09.460Z,4.43
2023-01-25T15:53:36.141Z,4.44
2023-01-25T15:56:16.898Z,4.44
2023-01-25T15:58:47.191Z,4.51
2023-01-25T16:01:14.092Z,4.51
2023-01-25T16:03:41.612Z,4.38
2023-01-25T16:06:44.607Z,4.41
2023-01-25T16:09:15.567Z,4.43
2023-01-25T16:11:42.125Z,4.48
2023-01-25T16:14:12.069Z,4.46
2023-01-25T16:16:42.987Z,4.40
2023-01-25T16:19:13.306Z,4.45
2023-01-25T16:21:41.524Z,4.47
2023-01-25T16:24:10.076Z,4.42
2023-01-25T16:26:45.588Z,4.52
2023-01-25T16:29:12.434Z,4.56
2023-01-25T16:31:39.255Z,4.59
2023-01-25T16:34:06.281Z,4.64
2023-01-25T16:36:34.525Z,4.67
2023-01-25T16:39:33.636Z,4.56
2023-01-25T16:42:00.969Z,4.56
2023-01-25T16:44:28.121Z,4.45
2023-01-25T16:46:55.206Z,4.49
2023-01-25T16:49:26.300Z,4.40
2023-01-25T16:51:53.887Z,4.31
2023-01-25T16:54:21.065Z,4.19
2023-01-25T16:56:48.569Z,4.25
2023-01-25T16:59:15.668Z,4.25
2023-01-25T17:01:42.475Z,4.39
2023-01-25T17:04:12.677Z,4.46
2023-01-25T17:06:42.960Z,4.56
2023-01-25T17:09:22.813Z,4.65
2023-01-25T17:11:51.151Z,4.74
2023-01-25T17:14:19.238Z,4.58
2023-01-25T17:16:48.271Z,4.16
2023-01-25T17:19:16.242Z,3.97
2023-01-25T17:21:43.170Z,3.81
2023-01-25T17:24:13.455Z,3.91
2023-01-25T17:26:40.839Z,4.11
2023-01-25T17:29:10.259Z,4.04
2023-01-25T17:31:39.900Z,4.22
2023-01-25T17:34:08.401Z,4.40
2023-01-25T17:36:35.375Z,4.52
2023-01-25T17:39:33.045Z,4.56
2023-01-25T17:41:59.633Z,4.63
2023-01-25T17:44:26.231Z,4.68
2023-01-25T17:46:52.722Z,4.41
2023-01-25T17:49:20.029Z,4.26
2023-01-25T17:51:46.591Z,4.32
2023-01-25T17:54:13.587Z,4.35
2023-01-25T17:56:40.153Z,4.45
2023-01-25T17:59:09.045Z,4.49
2023-01-25T18:01:36.311Z,4.56
2023-01-25T18:04:07.046Z,4.61
2023-01-25T18:06:33.795Z,4.63
2023-01-25T18:09:02.399Z,4.66
2023-01-25T18:11:31.985Z,4.73
2023-01-25T18:14:01.534Z,4.79
2023-01-25T18:16:30.728Z,4.76
2023-01-25T18:18:59.346Z,4.65
2023-01-25T18:21:35.430Z,4.54
2023-01-25T18:24:06.210Z,4.54
2023-01-25T18:26:35.528Z,4.51
2023-01-25T18:29:08.555Z,4.42
2023-01-25T18:31:35.492Z,4.23
2023-01-25T18:34:02.344Z,4.17
2023-01-25T18:36:28.909Z,4.11
2023-01-25T18:38:55.491Z,3.96
2023-01-25T18:41:21.947Z,3.89
2023-01-25T18:43:50.055Z,3.91
2023-01-25T18:46:16.584Z,4.00
2023-01-25T18:48:45.497Z,4.06
2023-01-25T18:51:13.880Z,4.02
2023-01-25T18:53:44.207Z,4.04
2023-01-25T18:56:16.655Z,4.03
2023-01-25T18:59:09.275Z,4.06
2023-01-25T19:01:35.891Z,4.10
2023-01-25T19:04:02.461Z,4.04
2023-01-25T19:06:28.926Z,4.09
2023-01-25T19:08:57.131Z,4.10
2023-01-25T19:11:24.096Z,4.12
2023-01-25T19:13:50.670Z,4.17
2023-01-25T19:16:20.052Z,4.26
2023-01-25T19:18:50.087Z,4.30
2023-01-25T19:21:21.963Z,4.45
2023-01-25T19:23:50.366Z,4.41
2023-01-25T19:26:19.126Z,4.48
2023-01-25T19:28:46.418Z,4.52
2023-01-25T19:31:15.819Z,4.44
2023-01-25T19:33:49.587Z,4.47
2023-01-25T19:36:19.284Z,4.53
2023-01-25T19:38:47.214Z,4.59
2023-01-25T19:41:19.559Z,4.18
2023-01-25T19:43:46.949Z,4.12
2023-01-25T19:46:19.010Z,4.13
2023-01-25T19:48:49.846Z,4.22
2023-01-25T19:51:19.430Z,4.29
2023-01-25T19:53:48.685Z,4.37
2023-01-25T19:56:17.547Z,4.29
2023-01-25T19:58:45.766Z,3.94
2023-01-25T20:01:20.435Z,3.67
2023-01-25T20:03:48.234Z,3.44
2023-01-25T20:06:16.433Z,3.34
2023-01-25T20:08:44.592Z,3.38
2023-01-25T20:11:20.100Z,3.39
2023-01-25T20:13:51.706Z,3.39
2023-01-25T20:16:18.817Z,3.51
2023-01-25T20:18:46.653Z,3.47
2023-01-25T20:21:21.994Z,3.41
2023-01-25T20:23:56.098Z,3.39
2023-01-25T20:26:25.256Z,3.28
2023-01-25T20:28:53.568Z,3.28
2023-01-25T20:31:21.293Z,3.23
2023-01-25T20:33:50.216Z,3.12
2023-01-25T20:36:16.755Z,3.18
2023-01-25T20:38:43.616Z,3.10
2023-01-25T20:41:14.240Z,3.10
2023-01-25T20:43:46.380Z,3.23
2023-01-25T20:46:12.933Z,3.19
2023-01-25T20:48:39.579Z,3.33
2023-01-25T20:51:17.013Z,3.46
2023-01-25T20:53:45.742Z,3.35
2023-01-25T20:56:13.768Z,3.17
2023-01-25T20:58:41.240Z,3.23
2023-01-25T21:01:16.171Z,3.31
2023-01-25T21:03:42.773Z,3.34
2023-01-25T21:06:12.523Z,3.24
2023-01-25T21:08:39.589Z,3.28
2023-01-25T21:11:07.024Z,3.24
2023-01-25T21:13:33.800Z,3.26
2023-01-25T21:16:05.220Z,3.16
2023-01-25T21:18:32.822Z,3.10
2023-01-25T21:21:04.868Z,3.11
2023-01-25T21:23:34.152Z,3.09
2023-01-25T21:26:02.162Z,3.10
2023-01-25T21:28:29.223Z,3.07
2023-01-25T21:30:56.246Z,3.17
2023-01-25T21:33:23.042Z,3.23
2023-01-25T21:35:54.374Z,3.09
2023-01-25T21:38:21.598Z,3.09
2023-01-25T21:40:48.068Z,2.97
2023-01-25T21:43:16.346Z,2.83
2023-01-25T21:46:01.431Z,2.85
2023-01-25T21:48:46.597Z,2.78
2023-01-25T21:51:32.655Z,2.78
2023-01-25T21:53:59.286Z,2.77
2023-01-25T21:56:26.181Z,2.89
2023-01-25T21:58:52.921Z,2.92
2023-01-25T22:01:20.887Z,3.07
2023-01-25T22:03:51.021Z,3.20
2023-01-25T22:06:20.283Z,3.16
2023-01-25T22:08:47.834Z,3.16
2023-01-25T22:11:14.420Z,3.19
2023-01-25T22:13:41.526Z,3.16
2023-01-25T22:16:12.081Z,3.14
2023-01-25T22:18:41.289Z,3.05
2023-01-25T22:21:15.051Z,2.90
2023-01-25T22:23:41.756Z,2.96
2023-01-25T22:26:47.659Z,2.95
2023-01-25T22:29:16.528Z,2.97
2023-01-25T22:31:43.979Z,2.82
2023-01-25T22:34:11.050Z,2.72
2023-01-25T22:36:38.957Z,2.66
2023-01-25T22:39:05.504Z,2.68
2023-01-25T22:41:33.235Z,2.61
2023-01-25T22:43:59.660Z,2.68
2023-01-25T22:46:30.132Z,2.73
2023-01-25T22:49:11.828Z,2.86
2023-01-25T22:51:39.213Z,2.86
2023-01-25T22:54:05.711Z,2.78
2023-01-25T22:56:41.925Z,2.72
2023-01-25T22:59:11.997Z,2.75
2023-01-25T23:01:39.330Z,2.75
2023-01-25T23:04:05.823Z,2.77
2023-01-25T23:06:34.572Z,2.70
2023-01-25T23:09:03.400Z,2.62
2023-01-25T23:11:32.467Z,2.58
2023-01-25T23:14:18.098Z,2.50
2023-01-25T23:17:19.987Z,2.65
2023-01-25T23:19:46.468Z,2.68
2023-01-25T23:22:12.977Z,2.75
2023-01-25T23:24:39.624Z,2.69
2023-01-25T23:27:06.271Z,2.69
2023-01-25T23:29:33.229Z,2.61
2023-01-25T23:31:59.816Z,2.72
2023-01-25T23:34:26.447Z,2.78
2023-01-25T23:36:52.929Z,2.66
2023-01-25T23:39:20.083Z,2.67
2023-01-25T23:41:46.573Z,2.67
2023-01-25T23:44:15.629Z,2.69
2023-01-25T23:46:42.726Z,2.59
2023-01-25T23:49:09.861Z,2.64
2023-01-25T23:51:38.994Z,2.52
2023-01-25T23:54:05.521Z,2.64
2023-01-25T23:56:32.058Z,2.70
2023-01-25T23:58:58.562Z,2.68
